createdAt,value
2023-07-20T00:00:12.176Z,54.41
2023-07-20T00:01:02.240Z,52.43
2023-07-20T00:01:52.311Z,49.54
2023-07-20T00:02:42.377Z,47.70
2023-07-20T00:03:32.397Z,51.16
2023-07-20T00:04:22.525Z,52.95
2023-07-20T00:05:12.536Z,52.45
2023-07-20T00:06:02.625Z,50.29
2023-07-20T00:06:52.661Z,50.28
2023-07-20T00:07:42.702Z,49.92
2023-07-20T00:08:32.732Z,47.35
2023-07-20T00:09:22.794Z,52.35
2023-07-20T00:10:12.828Z,43.11
2023-07-20T00:11:02.912Z,43.82
2023-07-20T00:11:52.935Z,46.33
2023-07-20T00:12:43.055Z,44.51
2023-07-20T00:13:33.083Z,45.62
2023-07-20T00:14:23.170Z,40.75
2023-07-20T00:15:13.203Z,48.36
2023-07-20T00:16:03.249Z,47.49
2023-07-20T00:16:53.322Z,47.35
2023-07-20T00:17:43.369Z,49.46
2023-07-20T00:18:33.427Z,43.53
2023-07-20T00:19:23.528Z,49.80
2023-07-20T00:20:13.560Z,47.87
2023-07-20T00:21:03.650Z,42.36
2023-07-20T00:21:53.660Z,51.66
2023-07-20T00:22:43.737Z,43.89
2023-07-20T00:23:36.308Z,51.11
2023-07-20T00:24:23.804Z,55.19
2023-07-20T00:25:13.844Z,47.79
2023-07-20T00:26:03.933Z,45.82
2023-07-20T00:26:53.976Z,49.33
2023-07-20T00:27:44.024Z,42.92
2023-07-20T00:28:34.054Z,41.75
2023-07-20T00:29:24.106Z,43.52
2023-07-20T00:30:14.184Z,44.13
2023-07-20T00:31:04.296Z,47.39
2023-07-20T00:31:54.242Z,42.44
2023-07-20T00:32:44.339Z,42.48
2023-07-20T00:33:34.327Z,45.67
2023-07-20T00:34:24.446Z,49.37
2023-07-20T00:35:14.430Z,46.15
2023-07-20T00:36:04.494Z,43.74
2023-07-20T00:36:54.607Z,43.61
2023-07-20T00:37:44.683Z,39.07
2023-07-20T00:38:34.721Z,49.26
2023-07-20T00:39:24.772Z,46.82
2023-07-20T00:40:14.799Z,41.10
2023-07-20T00:41:04.921Z,48.07
2023-07-20T00:41:54.941Z,41.38
2023-07-20T00:42:45.015Z,38.76
2023-07-20T00:43:35.023Z,48.07
2023-07-20T00:44:25.071Z,43.74
2023-07-20T00:45:15.104Z,44.64
2023-07-20T00:46:05.309Z,44.67
2023-07-20T00:46:55.392Z,44.73
2023-07-20T00:47:45.516Z,45.82
2023-07-20T00:48:35.420Z,45.12
2023-07-20T00:49:25.502Z,44.30
2023-07-20T00:50:15.576Z,46.73
2023-07-20T00:51:05.615Z,48.70
2023-07-20T00:51:55.630Z,46.74
2023-07-20T00:52:45.689Z,49.47
2023-07-20T00:53:35.718Z,48.75
2023-07-20T00:54:25.768Z,46.14
2023-07-20T00:55:15.792Z,47.87
2023-07-20T00:56:05.883Z,42.74
2023-07-20T00:56:55.912Z,43.45
2023-07-20T00:57:45.995Z,47.02
2023-07-20T00:58:36.017Z,47.82
2023-07-20T00:59:26.100Z,44.79
2023-07-20T01:00:16.147Z,44.09
2023-07-20T01:01:08.266Z,43.62
2023-07-20T01:01:56.295Z,43.76
2023-07-20T01:02:46.660Z,44.44
2023-07-20T01:03:36.646Z,44.30
2023-07-20T01:04:26.667Z,46.00
2023-07-20T01:05:16.994Z,47.67
2023-07-20T01:06:07.117Z,49.18
2023-07-20T01:06:57.114Z,45.06
2023-07-20T01:07:47.454Z,41.51
2023-07-20T01:08:37.496Z,53.70
2023-07-20T01:09:27.537Z,43.55
2023-07-20T01:10:17.568Z,42.56
2023-07-20T01:11:07.670Z,53.02
2023-07-20T01:11:57.705Z,47.89
2023-07-20T01:12:47.736Z,39.29
2023-07-20T01:13:37.817Z,51.27
2023-07-20T01:14:27.854Z,43.73
2023-07-20T01:15:17.929Z,46.01
2023-07-20T01:16:08.024Z,36.78
2023-07-20T01:16:58.080Z,41.76
2023-07-20T01:17:48.087Z,42.41
2023-07-20T01:18:38.118Z,39.64
2023-07-20T01:19:28.156Z,42.00
2023-07-20T01:20:18.188Z,48.29
2023-07-20T01:21:08.346Z,40.62
2023-07-20T01:21:58.399Z,53.82
2023-07-20T01:22:48.455Z,43.66
2023-07-20T01:23:38.570Z,42.22
2023-07-20T01:24:28.527Z,42.43
2023-07-20T01:25:18.567Z,38.02
2023-07-20T01:26:08.612Z,50.18
2023-07-20T01:26:58.647Z,42.25
2023-07-20T01:27:48.814Z,48.19
2023-07-20T01:28:38.890Z,41.28
2023-07-20T01:29:28.940Z,44.25
2023-07-20T01:30:19.007Z,35.10
2023-07-20T01:31:09.084Z,49.72
2023-07-20T01:31:59.147Z,43.85
2023-07-20T01:32:49.167Z,40.05
2023-07-20T01:33:39.228Z,44.03
2023-07-20T01:34:29.260Z,41.08
2023-07-20T01:35:19.303Z,39.22
2023-07-20T01:36:09.347Z,48.56
2023-07-20T01:36:59.396Z,38.89
2023-07-20T01:37:49.450Z,40.55
2023-07-20T01:38:39.507Z,36.92
2023-07-20T01:39:29.529Z,48.27
2023-07-20T01:40:19.595Z,44.23
2023-07-20T01:41:09.673Z,46.06
2023-07-20T01:41:59.712Z,37.61
2023-07-20T01:42:49.752Z,34.83
2023-07-20T01:43:39.785Z,50.55
2023-07-20T01:44:29.811Z,45.20
2023-07-20T01:45:19.901Z,51.97
2023-07-20T01:46:10.004Z,55.09
2023-07-20T01:46:59.984Z,49.73
2023-07-20T01:47:50.077Z,52.21
2023-07-20T01:48:40.210Z,40.98
2023-07-20T01:49:30.172Z,48.40
2023-07-20T01:50:20.227Z,48.57
2023-07-20T01:51:10.266Z,41.48
2023-07-20T01:52:00.306Z,45.24
2023-07-20T01:52:50.337Z,44.87
2023-07-20T01:53:40.416Z,44.54
2023-07-20T01:54:30.473Z,40.57
2023-07-20T01:55:20.523Z,43.66
2023-07-20T01:56:10.590Z,46.00
2023-07-20T01:57:00.610Z,46.94
2023-07-20T01:57:50.644Z,40.56
2023-07-20T01:58:40.699Z,42.03
2023-07-20T01:59:30.722Z,49.45
2023-07-20T02:00:20.766Z,36.82
2023-07-20T02:01:10.906Z,55.63
2023-07-20T02:02:00.902Z,43.30
2023-07-20T02:02:50.981Z,38.36
2023-07-20T02:03:41.040Z,43.81
2023-07-20T02:04:31.060Z,45.67
2023-07-20T02:05:21.253Z,43.94
2023-07-20T02:06:11.236Z,47.22
2023-07-20T02:07:01.248Z,48.26
2023-07-20T02:07:51.309Z,42.03
2023-07-20T02:08:41.384Z,56.74
2023-07-20T02:09:31.429Z,48.76
2023-07-20T02:10:21.501Z,47.81
2023-07-20T02:11:11.566Z,40.89
2023-07-20T02:12:01.608Z,49.33
2023-07-20T02:12:51.642Z,52.26
2023-07-20T02:13:41.718Z,52.07
2023-07-20T02:14:31.821Z,50.54
2023-07-20T02:15:21.863Z,43.41
2023-07-20T02:16:11.982Z,46.19
2023-07-20T02:17:01.971Z,50.19
2023-07-20T02:17:51.989Z,43.47
2023-07-20T02:18:42.065Z,56.28
2023-07-20T02:19:32.116Z,44.61
2023-07-20T02:20:22.194Z,39.72
2023-07-20T02:21:12.256Z,42.78
2023-07-20T02:22:02.283Z,48.10
2023-07-20T02:22:53.122Z,37.65
2023-07-20T02:23:42.400Z,38.85
2023-07-20T02:24:32.454Z,39.70
2023-07-20T02:25:22.560Z,45.89
2023-07-20T02:26:12.588Z,42.43
2023-07-20T02:27:02.628Z,41.52
2023-07-20T02:27:52.652Z,40.13
2023-07-20T02:28:42.725Z,42.81
2023-07-20T02:29:32.756Z,39.16
2023-07-20T02:30:22.828Z,47.26
2023-07-20T02:31:12.956Z,41.72
2023-07-20T02:32:02.940Z,43.40
2023-07-20T02:32:52.983Z,44.12
2023-07-20T02:33:43.054Z,45.81
2023-07-20T02:34:33.086Z,44.28
2023-07-20T02:35:23.161Z,43.08
2023-07-20T02:36:13.202Z,42.95
2023-07-20T02:37:03.241Z,40.62
2023-07-20T02:37:53.286Z,38.76
2023-07-20T02:38:43.358Z,41.48
2023-07-20T02:39:33.389Z,44.58
2023-07-20T02:40:23.456Z,39.67
2023-07-20T02:41:13.570Z,48.10
2023-07-20T02:42:03.594Z,50.92
2023-07-20T02:42:53.625Z,43.91
2023-07-20T02:43:43.697Z,40.64
2023-07-20T02:44:33.731Z,41.54
2023-07-20T02:45:23.818Z,34.52
2023-07-20T02:46:13.881Z,40.57
2023-07-20T02:47:03.941Z,42.59
2023-07-20T02:47:53.947Z,43.36
2023-07-20T02:48:44.017Z,40.67
2023-07-20T02:49:34.080Z,43.21
2023-07-20T02:50:24.141Z,40.67
2023-07-20T02:51:14.200Z,43.93
2023-07-20T02:52:04.261Z,48.53
2023-07-20T02:52:54.262Z,42.07
2023-07-20T02:53:44.338Z,38.64
2023-07-20T02:54:34.407Z,51.54
2023-07-20T02:55:24.472Z,46.03
2023-07-20T02:56:14.542Z,41.31
2023-07-20T02:57:04.690Z,50.55
2023-07-20T02:57:54.656Z,53.62
2023-07-20T02:58:44.738Z,48.71
2023-07-20T02:59:34.813Z,39.44
2023-07-20T03:00:24.842Z,40.96
2023-07-20T03:01:14.926Z,41.86
2023-07-20T03:02:05.138Z,48.67
2023-07-20T03:02:55.172Z,49.71
2023-07-20T03:03:45.281Z,50.14
2023-07-20T03:04:35.294Z,56.55
2023-07-20T03:05:25.371Z,57.76
2023-07-20T03:06:15.496Z,53.23
2023-07-20T03:07:05.482Z,47.38
2023-07-20T03:07:55.555Z,53.32
2023-07-20T03:08:45.624Z,52.03
2023-07-20T03:09:35.695Z,51.42
2023-07-20T03:10:25.772Z,62.26
2023-07-20T03:11:16.055Z,62.65
2023-07-20T03:12:06.127Z,48.58
2023-07-20T03:12:56.120Z,61.72
2023-07-20T03:13:46.172Z,60.36
2023-07-20T03:14:36.196Z,61.74
2023-07-20T03:15:26.280Z,62.58
2023-07-20T03:16:16.389Z,66.01
2023-07-20T03:17:06.432Z,74.09
2023-07-20T03:17:56.475Z,69.82
2023-07-20T03:18:46.531Z,77.86
2023-07-20T03:19:36.599Z,73.17
2023-07-20T03:20:26.922Z,73.55
2023-07-20T03:21:17.011Z,78.38
2023-07-20T03:22:07.043Z,71.03
2023-07-20T03:22:57.408Z,72.97
2023-07-20T03:23:47.427Z,75.07
2023-07-20T03:24:37.459Z,81.30
2023-07-20T03:25:28.853Z,83.40
2023-07-20T03:26:17.717Z,78.89
2023-07-20T03:27:07.741Z,83.13
2023-07-20T03:27:57.801Z,83.59
2023-07-20T03:28:47.888Z,88.59
2023-07-20T03:29:37.935Z,89.56
2023-07-20T03:30:28.005Z,88.89
2023-07-20T03:31:18.148Z,87.22
2023-07-20T03:32:08.128Z,104.94
2023-07-20T03:32:58.219Z,100.95
2023-07-20T03:33:48.256Z,95.47
2023-07-20T03:34:38.328Z,105.93
2023-07-20T03:35:28.568Z,103.53
2023-07-20T03:36:18.652Z,107.66
2023-07-20T03:37:08.689Z,115.18
2023-07-20T03:37:59.568Z,115.44
2023-07-20T03:38:48.798Z,113.92
2023-07-20T03:39:38.821Z,134.45
2023-07-20T03:40:28.906Z,139.79
2023-07-20T03:41:18.998Z,146.92
2023-07-20T03:42:09.022Z,147.30
2023-07-20T03:42:59.060Z,146.94
2023-07-20T03:43:49.119Z,154.29
2023-07-20T03:44:39.209Z,155.21
2023-07-20T03:45:29.264Z,161.43
2023-07-20T03:46:19.703Z,161.01
2023-07-20T03:47:09.659Z,155.41
2023-07-20T03:47:59.760Z,165.10
2023-07-20T03:48:49.795Z,165.25
2023-07-20T03:49:39.860Z,165.88
2023-07-20T03:50:29.934Z,165.35
2023-07-20T03:51:20.008Z,166.93
2023-07-20T03:52:10.024Z,170.58
2023-07-20T03:53:00.102Z,179.16
2023-07-20T03:53:50.150Z,196.39
2023-07-20T03:54:40.213Z,207.83
2023-07-20T03:55:30.287Z,225.16
2023-07-20T03:56:20.492Z,219.96
2023-07-20T03:57:10.601Z,240.67
2023-07-20T03:58:00.664Z,235.29
2023-07-20T03:58:50.696Z,244.24
2023-07-20T03:59:41.012Z,252.55
2023-07-20T04:00:31.109Z,243.78
2023-07-20T04:01:21.297Z,243.30
2023-07-20T04:02:11.223Z,250.00
2023-07-20T04:03:01.314Z,247.04
2023-07-20T04:03:51.289Z,247.44
2023-07-20T04:04:41.358Z,243.21
2023-07-20T04:05:31.428Z,243.85
2023-07-20T04:06:21.775Z,243.69
2023-07-20T04:07:11.562Z,249.64
2023-07-20T04:08:01.616Z,243.89
2023-07-20T04:08:51.899Z,246.36
2023-07-20T04:09:41.983Z,243.63
2023-07-20T04:10:32.057Z,245.67
2023-07-20T04:11:22.081Z,251.87
2023-07-20T04:12:12.107Z,242.55
2023-07-20T04:13:02.180Z,247.63
2023-07-20T04:13:52.257Z,246.58
2023-07-20T04:14:42.285Z,249.78
2023-07-20T04:15:32.327Z,252.35
2023-07-20T04:16:22.710Z,250.00
2023-07-20T04:17:12.462Z,248.23
2023-07-20T04:18:03.069Z,244.38
2023-07-20T04:18:52.558Z,243.44
2023-07-20T04:19:42.841Z,248.00
2023-07-20T04:20:32.878Z,249.89
2023-07-20T04:21:22.945Z,245.18
2023-07-20T04:22:12.985Z,244.89
2023-07-20T04:23:03.122Z,247.08
2023-07-20T04:23:53.049Z,247.73
2023-07-20T04:24:43.077Z,248.21
2023-07-20T04:25:33.120Z,248.08
2023-07-20T04:26:23.418Z,247.48
2023-07-20T04:27:13.261Z,249.71
2023-07-20T04:28:03.301Z,250.02
2023-07-20T04:28:53.354Z,242.76
2023-07-20T04:29:43.410Z,243.70
2023-07-20T04:30:33.450Z,247.60
2023-07-20T04:31:23.548Z,248.63
2023-07-20T04:32:13.542Z,250.00
2023-07-20T04:33:03.675Z,246.68
2023-07-20T04:33:53.672Z,243.06
2023-07-20T04:34:43.716Z,245.80
2023-07-20T04:35:33.785Z,249.68
2023-07-20T04:36:24.087Z,249.99
2023-07-20T04:37:13.932Z,247.33
2023-07-20T04:38:03.930Z,247.62
2023-07-20T04:38:54.011Z,249.38
2023-07-20T04:39:44.039Z,249.16
2023-07-20T04:40:34.130Z,245.33
2023-07-20T04:41:24.169Z,248.94
2023-07-20T04:42:14.222Z,249.15
2023-07-20T04:43:04.271Z,247.23
2023-07-20T04:43:54.332Z,247.91
2023-07-20T04:44:44.349Z,250.00
2023-07-20T04:45:34.389Z,245.48
2023-07-20T04:46:24.897Z,245.50
2023-07-20T04:47:14.509Z,245.68
2023-07-20T04:48:04.674Z,245.90
2023-07-20T04:48:54.675Z,247.30
2023-07-20T04:49:44.691Z,249.40
2023-07-20T04:50:34.791Z,250.28
2023-07-20T04:51:24.823Z,248.08
2023-07-20T04:52:15.700Z,243.91
2023-07-20T04:53:04.983Z,245.63
2023-07-20T04:53:55.022Z,245.12
2023-07-20T04:54:45.049Z,248.04
2023-07-20T04:55:35.091Z,246.65
2023-07-20T04:56:25.319Z,242.81
2023-07-20T04:57:15.201Z,245.29
2023-07-20T04:58:05.253Z,244.45
2023-07-20T04:58:55.367Z,242.59
2023-07-20T04:59:45.391Z,245.58
2023-07-20T05:00:35.467Z,244.05
2023-07-20T05:01:25.518Z,241.89
2023-07-20T05:02:15.523Z,243.74
2023-07-20T05:03:05.676Z,247.45
2023-07-20T05:03:55.733Z,240.28
2023-07-20T05:04:45.644Z,243.90
2023-07-20T05:05:35.732Z,242.80
2023-07-20T05:06:25.903Z,240.04
2023-07-20T05:07:15.818Z,242.05
2023-07-20T05:08:05.888Z,241.73
2023-07-20T05:08:55.967Z,240.82
2023-07-20T05:09:45.989Z,239.66
2023-07-20T05:10:36.074Z,234.64
2023-07-20T05:11:26.135Z,238.07
2023-07-20T05:12:17.423Z,236.66
2023-07-20T05:13:06.220Z,234.21
2023-07-20T05:13:56.257Z,232.19
2023-07-20T05:14:46.301Z,235.84
2023-07-20T05:15:36.421Z,236.67
2023-07-20T05:16:26.637Z,237.51
2023-07-20T05:17:16.462Z,230.69
2023-07-20T05:18:06.554Z,236.03
2023-07-20T05:18:56.816Z,233.84
2023-07-20T05:19:46.950Z,233.84
2023-07-20T05:20:36.935Z,233.00
2023-07-20T05:21:27.025Z,228.10
2023-07-20T05:22:17.065Z,229.53
2023-07-20T05:23:07.161Z,227.46
2023-07-20T05:23:57.183Z,227.95
2023-07-20T05:24:47.215Z,227.54
2023-07-20T05:25:37.307Z,224.06
2023-07-20T05:26:27.341Z,223.25
2023-07-20T05:27:17.370Z,223.15
2023-07-20T05:28:07.441Z,222.75
2023-07-20T05:28:57.508Z,221.70
2023-07-20T05:29:47.541Z,221.34
2023-07-20T05:30:37.655Z,218.86
2023-07-20T05:31:27.777Z,219.27
2023-07-20T05:32:17.785Z,218.38
2023-07-20T05:33:07.874Z,219.89
2023-07-20T05:33:57.904Z,214.99
2023-07-20T05:34:47.990Z,216.54
2023-07-20T05:35:38.025Z,219.07
2023-07-20T05:36:28.057Z,219.50
2023-07-20T05:37:18.101Z,221.48
2023-07-20T05:38:08.130Z,212.72
2023-07-20T05:38:58.202Z,212.07
2023-07-20T05:39:48.224Z,216.91
2023-07-20T05:40:38.304Z,209.07
2023-07-20T05:41:28.361Z,211.10
2023-07-20T05:42:18.384Z,211.24
2023-07-20T05:43:08.416Z,209.85
2023-07-20T05:43:58.502Z,208.87
2023-07-20T05:44:48.521Z,211.81
2023-07-20T05:45:38.604Z,211.01
2023-07-20T05:46:33.525Z,209.73
2023-07-20T05:47:19.644Z,209.75
2023-07-20T05:48:08.723Z,209.23
2023-07-20T05:48:58.728Z,207.31
2023-07-20T05:49:48.768Z,206.07
2023-07-20T05:50:38.829Z,201.50
2023-07-20T05:51:28.939Z,202.36
2023-07-20T05:52:18.935Z,204.25
2023-07-20T05:53:09.200Z,203.53
2023-07-20T05:53:59.220Z,201.83
2023-07-20T05:54:49.295Z,203.99
2023-07-20T05:55:39.342Z,202.60
2023-07-20T05:56:29.397Z,199.53
2023-07-20T05:57:19.398Z,196.96
2023-07-20T05:58:09.481Z,199.84
2023-07-20T05:58:59.509Z,197.82
2023-07-20T05:59:49.585Z,197.66
2023-07-20T06:00:39.615Z,195.52
2023-07-20T06:01:29.788Z,199.52
2023-07-20T06:02:19.752Z,197.15
2023-07-20T06:03:09.815Z,196.49
2023-07-20T06:03:59.900Z,196.25
2023-07-20T06:04:49.893Z,198.26
2023-07-20T06:05:39.947Z,196.37
2023-07-20T06:06:30.016Z,195.92
2023-07-20T06:07:20.069Z,194.58
2023-07-20T06:08:10.122Z,194.00
2023-07-20T06:09:00.158Z,197.06
2023-07-20T06:09:50.250Z,193.43
2023-07-20T06:10:41.556Z,194.45
2023-07-20T06:11:30.348Z,197.32
2023-07-20T06:12:20.393Z,190.98
2023-07-20T06:13:10.464Z,193.73
2023-07-20T06:14:00.490Z,194.95
2023-07-20T06:14:50.576Z,194.65
2023-07-20T06:15:40.591Z,195.31
2023-07-20T06:16:30.799Z,192.27
2023-07-20T06:17:20.773Z,193.53
2023-07-20T06:18:10.842Z,190.41
2023-07-20T06:19:00.878Z,189.50
2023-07-20T06:19:50.933Z,190.52
2023-07-20T06:20:41.084Z,189.21
2023-07-20T06:21:31.170Z,188.26
2023-07-20T06:22:21.212Z,190.32
2023-07-20T06:23:11.360Z,190.00
2023-07-20T06:24:01.379Z,190.86
2023-07-20T06:24:51.422Z,191.56
2023-07-20T06:25:41.493Z,189.26
2023-07-20T06:26:31.566Z,188.37
2023-07-20T06:27:21.595Z,190.00
2023-07-20T06:28:11.670Z,188.37
2023-07-20T06:29:01.702Z,189.90
2023-07-20T06:29:51.759Z,187.58
2023-07-20T06:30:41.868Z,188.73
2023-07-20T06:31:31.945Z,186.88
2023-07-20T06:32:21.946Z,186.30
2023-07-20T06:33:12.038Z,185.69
2023-07-20T06:34:02.185Z,189.31
2023-07-20T06:34:52.117Z,186.11
2023-07-20T06:35:42.157Z,184.62
2023-07-20T06:36:32.251Z,184.25
2023-07-20T06:37:22.269Z,183.42
2023-07-20T06:40:42.512Z,182.88
2023-07-20T06:42:22.605Z,185.80
2023-07-20T06:44:02.736Z,185.77
2023-07-20T06:44:52.808Z,185.00
2023-07-20T06:45:43.007Z,184.63
2023-07-20T06:46:33.003Z,183.75
2023-07-20T06:47:23.022Z,181.92
2023-07-20T06:48:13.076Z,179.43
2023-07-20T06:49:53.175Z,177.79
2023-07-20T06:50:43.248Z,179.63
2023-07-20T06:51:33.335Z,176.43
2023-07-20T06:52:23.377Z,175.39
2023-07-20T06:53:13.441Z,173.31
2023-07-20T06:54:03.481Z,174.59
2023-07-20T06:54:53.573Z,170.16
2023-07-20T06:55:43.589Z,170.24
2023-07-20T06:56:34.405Z,167.48
2023-07-20T06:57:23.960Z,167.84
2023-07-20T06:58:14.041Z,166.45
2023-07-20T06:59:04.073Z,168.06
2023-07-20T06:59:54.184Z,168.02
2023-07-20T07:00:44.180Z,164.61
2023-07-20T07:01:34.319Z,163.12
2023-07-20T07:02:24.397Z,164.06
2023-07-20T07:03:14.393Z,166.78
2023-07-20T07:04:04.470Z,164.91
2023-07-20T07:05:00.423Z,165.31
2023-07-20T07:05:45.588Z,164.13
2023-07-20T07:06:34.622Z,165.34
2023-07-20T07:07:27.708Z,165.47
2023-07-20T07:08:14.677Z,165.36
2023-07-20T07:09:04.732Z,165.41
2023-07-20T07:09:54.885Z,165.27
2023-07-20T07:10:44.828Z,164.92
2023-07-20T07:11:34.907Z,163.18
2023-07-20T07:12:24.930Z,164.20
2023-07-20T07:13:14.992Z,164.15
2023-07-20T07:14:05.057Z,162.09
2023-07-20T07:14:55.134Z,163.82
2023-07-20T07:15:45.253Z,163.30
2023-07-20T07:17:25.664Z,162.88
2023-07-20T07:18:15.592Z,162.03
2023-07-20T07:19:05.608Z,160.45
2023-07-20T07:19:55.679Z,160.35
2023-07-20T07:20:45.942Z,158.87
2023-07-20T07:21:36.019Z,157.01
2023-07-20T07:22:26.069Z,157.67
2023-07-20T07:23:16.165Z,154.57
2023-07-20T07:24:06.160Z,154.73
2023-07-20T07:24:56.228Z,159.60
2023-07-20T07:25:46.343Z,156.87
2023-07-20T07:26:36.382Z,152.49
2023-07-20T07:27:26.407Z,150.38
2023-07-20T07:28:16.466Z,147.83
2023-07-20T07:29:06.534Z,147.71
2023-07-20T07:29:56.852Z,143.74
2023-07-20T07:30:46.962Z,141.52
2023-07-20T07:31:37.021Z,138.35
2023-07-20T07:32:27.067Z,138.17
2023-07-20T07:33:17.075Z,133.61
2023-07-20T07:34:07.125Z,128.79
2023-07-20T07:34:57.185Z,130.66
2023-07-20T07:35:47.240Z,126.75
2023-07-20T07:36:37.316Z,126.50
2023-07-20T07:37:27.361Z,122.97
2023-07-20T07:38:34.432Z,126.56
2023-07-20T07:39:57.510Z,124.45
2023-07-20T07:40:47.596Z,126.60
2023-07-20T07:41:37.942Z,124.62
2023-07-20T07:42:27.699Z,123.57
2023-07-20T07:43:17.765Z,129.99
2023-07-20T07:44:07.829Z,129.58
2023-07-20T07:44:58.018Z,129.57
2023-07-20T07:45:48.096Z,130.97
2023-07-20T07:46:38.222Z,132.11
2023-07-20T07:47:28.246Z,133.60
2023-07-20T07:48:18.577Z,130.10
2023-07-20T07:49:08.641Z,127.63
2023-07-20T07:49:58.713Z,124.45
2023-07-20T07:50:48.781Z,122.73
2023-07-20T07:51:38.879Z,118.30
2023-07-20T07:52:28.913Z,116.92
2023-07-20T07:53:18.934Z,115.12
2023-07-20T07:54:09.098Z,112.84
2023-07-20T07:54:59.061Z,111.01
2023-07-20T07:55:49.122Z,109.10
2023-07-20T07:56:39.196Z,106.30
2023-07-20T07:57:29.228Z,105.29
2023-07-20T07:58:19.264Z,101.82
2023-07-20T07:59:09.336Z,102.54
2023-07-20T07:59:59.411Z,98.84
2023-07-20T08:00:49.519Z,100.80
2023-07-20T08:01:39.556Z,95.87
2023-07-20T08:02:29.608Z,96.14
2023-07-20T08:03:19.747Z,94.23
2023-07-20T08:04:09.883Z,91.84
2023-07-20T08:04:59.939Z,89.32
2023-07-20T08:05:50.008Z,85.76
2023-07-20T08:06:40.302Z,85.67
2023-07-20T08:07:30.368Z,86.08
2023-07-20T08:08:20.822Z,82.80
2023-07-20T08:09:10.721Z,87.59
2023-07-20T08:10:00.777Z,86.92
2023-07-20T08:10:50.854Z,88.56
2023-07-20T08:11:40.910Z,92.70
2023-07-20T08:12:37.240Z,89.94
2023-07-20T08:13:20.995Z,89.99
2023-07-20T08:14:11.061Z,89.97
2023-07-20T08:15:01.121Z,86.78
2023-07-20T08:15:51.184Z,82.89
2023-07-20T08:16:41.523Z,86.49
2023-07-20T08:17:31.747Z,82.53
2023-07-20T08:18:21.650Z,81.50
2023-07-20T08:19:11.851Z,79.01
2023-07-20T08:20:01.850Z,75.56
2023-07-20T08:20:51.906Z,75.74
2023-07-20T08:21:41.989Z,73.15
2023-07-20T08:22:31.995Z,72.10
2023-07-20T08:23:22.058Z,71.76
2023-07-20T08:24:12.154Z,69.88
2023-07-20T08:25:02.162Z,64.57
2023-07-20T08:25:52.200Z,63.04
2023-07-20T08:26:42.333Z,64.20
2023-07-20T08:27:32.286Z,60.29
2023-07-20T08:28:22.390Z,57.94
2023-07-20T08:29:12.428Z,58.63
2023-07-20T08:30:02.658Z,52.40
2023-07-20T08:30:52.744Z,55.92
2023-07-20T08:31:42.815Z,51.54
2023-07-20T08:32:32.872Z,51.35
2023-07-20T08:33:22.916Z,47.22
2023-07-20T08:34:24.381Z,46.73
2023-07-20T08:35:04.040Z,45.15
2023-07-20T08:35:53.099Z,45.07
2023-07-20T08:36:43.172Z,44.19
2023-07-20T08:37:33.256Z,46.91
2023-07-20T08:38:24.825Z,44.68
2023-07-20T08:39:13.355Z,39.58
2023-07-20T08:40:03.420Z,39.80
2023-07-20T08:40:53.476Z,34.58
2023-07-20T08:41:43.548Z,34.98
2023-07-20T08:42:33.615Z,39.14
2023-07-20T08:43:23.671Z,44.95
2023-07-20T08:44:13.782Z,43.40
2023-07-20T08:45:03.787Z,43.77
2023-07-20T08:45:54.073Z,40.19
2023-07-20T08:46:44.157Z,41.49
2023-07-20T08:47:34.189Z,39.32
2023-07-20T08:48:24.223Z,41.19
2023-07-20T08:49:14.297Z,38.81
2023-07-20T08:50:04.361Z,33.39
2023-07-20T08:50:54.452Z,33.33
2023-07-20T08:51:44.515Z,31.00
2023-07-20T08:52:34.543Z,31.52
2023-07-20T08:53:24.615Z,31.78
2023-07-20T08:54:14.666Z,30.01
2023-07-20T08:55:04.904Z,30.37
2023-07-20T08:55:54.970Z,31.05
2023-07-20T08:56:45.053Z,27.40
2023-07-20T08:57:35.093Z,27.49
2023-07-20T08:58:25.128Z,27.59
2023-07-20T08:59:15.190Z,27.59
2023-07-20T09:00:05.285Z,27.17
2023-07-20T09:00:55.347Z,24.91
2023-07-20T09:01:45.463Z,30.81
2023-07-20T09:02:35.511Z,30.36
2023-07-20T09:03:25.570Z,29.60
2023-07-20T09:04:15.759Z,25.00
2023-07-20T09:05:05.823Z,25.00
2023-07-20T09:05:55.894Z,25.00
2023-07-20T09:06:46.238Z,26.52
2023-07-20T09:07:36.260Z,30.76
2023-07-20T09:08:26.318Z,27.53
2023-07-20T09:09:16.642Z,25.78
2023-07-20T09:10:06.706Z,26.20
2023-07-20T09:10:56.757Z,27.23
2023-07-20T09:11:47.091Z,27.45
2023-07-20T09:12:37.168Z,25.03
2023-07-20T09:13:28.711Z,26.40
2023-07-20T09:14:17.254Z,25.75
2023-07-20T09:15:07.305Z,26.47
2023-07-20T09:15:57.414Z,27.40
2023-07-20T09:16:47.491Z,25.43
2023-07-20T09:17:37.825Z,26.37
2023-07-20T09:18:27.538Z,26.65
2023-07-20T09:19:17.602Z,26.29
2023-07-20T09:20:07.646Z,25.85
2023-07-20T09:20:57.961Z,26.90
2023-07-20T09:21:48.055Z,25.00
2023-07-20T09:22:38.060Z,25.57
2023-07-20T09:23:28.379Z,28.05
2023-07-20T09:24:18.539Z,26.96
2023-07-20T09:25:08.513Z,27.93
2023-07-20T09:25:58.581Z,31.07
2023-07-20T09:26:48.828Z,26.19
2023-07-20T09:27:38.701Z,28.13
2023-07-20T09:28:28.760Z,27.72
2023-07-20T09:29:18.826Z,26.59
2023-07-20T09:30:08.895Z,28.87
2023-07-20T09:30:58.973Z,26.91
2023-07-20T09:31:49.396Z,27.79
2023-07-20T09:32:53.889Z,29.75
2023-07-20T09:33:30.437Z,29.82
2023-07-20T09:34:37.432Z,30.20
2023-07-20T09:36:07.243Z,29.82
2023-07-20T09:37:39.646Z,29.84
2023-07-20T09:39:04.835Z,29.83
2023-07-20T09:41:01.411Z,29.80
2023-07-20T09:41:50.029Z,29.89
2023-07-20T09:42:40.078Z,30.25
2023-07-20T09:43:30.113Z,30.49
2023-07-20T09:45:10.195Z,29.84
2023-07-20T09:46:00.261Z,29.80
2023-07-20T09:47:40.484Z,29.79
2023-07-20T09:51:00.641Z,29.78
2023-07-20T09:51:50.717Z,30.07
2023-07-20T09:53:30.910Z,29.80
2023-07-20T09:54:20.924Z,30.06
2023-07-20T09:55:10.969Z,30.67
2023-07-20T09:56:01.037Z,31.40
2023-07-20T09:56:51.116Z,32.38
2023-07-20T09:57:41.181Z,33.90
2023-07-20T09:58:31.233Z,34.27
2023-07-20T09:59:21.316Z,34.50
2023-07-20T10:01:01.662Z,31.71
2023-07-20T10:01:51.773Z,29.37
2023-07-20T10:02:41.848Z,32.05
2023-07-20T10:03:33.646Z,32.04
2023-07-20T10:04:22.294Z,31.75
2023-07-20T10:05:11.959Z,30.85
2023-07-20T10:06:02.041Z,28.19
2023-07-20T10:06:52.057Z,27.88
2023-07-20T10:07:42.140Z,26.45
2023-07-20T10:09:22.250Z,25.59
2023-07-20T10:10:12.372Z,23.97
2023-07-20T10:11:02.385Z,22.17
2023-07-20T10:12:06.385Z,24.52
2023-07-20T10:12:44.164Z,23.10
2023-07-20T10:13:32.834Z,22.80
2023-07-20T10:14:22.892Z,25.96
2023-07-20T10:15:12.952Z,20.92
2023-07-20T10:16:04.015Z,23.29
2023-07-20T10:16:53.412Z,24.02
2023-07-20T10:17:43.400Z,22.66
2023-07-20T10:18:33.771Z,27.98
2023-07-20T10:19:23.749Z,29.56
2023-07-20T10:20:13.823Z,27.25
2023-07-20T10:21:56.556Z,25.00
2023-07-20T10:22:47.144Z,25.03
2023-07-20T10:23:34.065Z,24.92
2023-07-20T10:24:24.169Z,21.99
2023-07-20T10:25:14.213Z,24.92
2023-07-20T10:26:04.267Z,23.56
2023-07-20T10:26:54.414Z,23.94
2023-07-20T10:27:44.421Z,25.65
2023-07-20T10:28:34.503Z,24.24
2023-07-20T10:29:24.820Z,28.06
2023-07-20T10:30:14.906Z,26.49
2023-07-20T10:31:04.929Z,26.75
2023-07-20T10:31:55.956Z,25.42
2023-07-20T10:32:45.090Z,25.44
2023-07-20T10:33:35.124Z,25.00
2023-07-20T10:34:25.364Z,27.77
2023-07-20T10:35:15.251Z,26.43
2023-07-20T10:36:05.317Z,24.54
2023-07-20T10:36:55.430Z,26.96
2023-07-20T10:37:47.094Z,25.95
2023-07-20T10:38:35.625Z,26.98
2023-07-20T10:39:25.784Z,26.29
2023-07-20T10:40:15.988Z,25.99
2023-07-20T10:41:06.033Z,26.92
2023-07-20T10:41:56.115Z,25.60
2023-07-20T10:42:46.137Z,27.10
2023-07-20T10:43:36.205Z,26.60
2023-07-20T10:44:26.271Z,29.50
2023-07-20T10:45:16.343Z,28.18
2023-07-20T10:46:06.391Z,26.03
2023-07-20T10:46:56.464Z,29.46
2023-07-20T10:47:46.545Z,32.87
2023-07-20T10:48:37.326Z,29.42
2023-07-20T10:49:26.588Z,26.15
2023-07-20T10:50:16.760Z,28.05
2023-07-20T10:51:06.716Z,31.62
2023-07-20T10:51:56.811Z,29.75
2023-07-20T10:52:46.842Z,29.47
2023-07-20T10:53:36.983Z,29.46